Aérodrome :
LOGIN :

S'inscrire | Disclaimer

   EN    FR    IT 

 










Légende :    VFR   VFR Marginal   IFR   IFR Intensif   IFR Très Intensif
Visi : 
Plafond : 
>= 8 km
>= 3000ft
5 à 8 km
1000 à 3000 ft
1500m à 5 km
500 à 1000 ft
800 à 1500m
200 à 500 ft
< 800m
< 200 ft
Symboles :   Orages  Brouillard  Fortes neiges  Fortes précipitations  Vent > 20 kt
SIGMETs :   Divers  Orages  Givrage  Turbulence  Onde Orograph.  Cendres Volcan.






- Altitude de l'aérodrome : 1367 ft
- Code IATA : FDH


EDNY - Friedrichshafen

DERNIER METAR :
  • 280720Z VRB03KT 9999 FEW021 SCT041 13/09 Q1021

METARs EXPIRÉS :
  • 280650Z VRB02KT 9999 FEW018 BKN040 14/09 Q1021
  • 280620Z VRB03KT 9999 FEW037 14/09 Q1021
  • 280550Z AUTO 35003KT 280V050 9999 BKN062/// BKN078/// 13/09 Q1021
  • 280520Z AUTO VRB02KT 9999 FEW027/// OVC060/// 13/09 Q1020
  • 280450Z AUTO 35003KT 290V040 9999 FEW025/// BKN029/// OVC059/// 13/09 Q1020

TAF TAF EDNY
Valide du 28 à 06h jusqu'au 29 à 06h UTC


280500Z 2806/2906 01004KT 9999 FEW040 SCT055



MET'MAP, la Météo Aéronautique d'un coup d'oeil ! - Copyright ORBIFLY Décembre 2007 - Disclaimer

ORBIFLY MET'MAP TEAM :

Programmation & Développement : Alexandra Zaïnal
Sur une idée originale de : Baudouin d'Aumeries
Soutien technique & logistique : Manuel Goepfert
Assistance : Marc-Olivier Méhu

Contact : metmap@orbifly.com




SOURCES & CREDITS :

   NOAA